sensor_id;sensor_type;location;lat;lon;timestamp;P1;durP1;ratioP1;P2;durP2;ratioP2
29688;SDS011;16600;47.444;8.334;2022-12-10T00:01:46;36.50;;;26.02;;
29688;SDS011;16600;47.444;8.334;2022-12-10T00:04:13;37.97;;;25.38;;
29688;SDS011;16600;47.444;8.334;2022-12-10T00:06:40;34.58;;;24.48;;
29688;SDS011;16600;47.444;8.334;2022-12-10T00:09:07;33.08;;;25.45;;
29688;SDS011;16600;47.444;8.334;2022-12-10T00:11:37;36.25;;;27.70;;
29688;SDS011;16600;47.444;8.334;2022-12-10T00:14:03;38.40;;;27.73;;
29688;SDS011;16600;47.444;8.334;2022-12-10T00:16:32;36.75;;;27.63;;
29688;SDS011;16600;47.444;8.334;2022-12-10T00:18:59;41.22;;;30.27;;
29688;SDS011;16600;47.444;8.334;2022-12-10T00:21:29;48.22;;;30.48;;
29688;SDS011;16600;47.444;8.334;2022-12-10T00:23:59;44.95;;;29.63;;
29688;SDS011;16600;47.444;8.334;2022-12-10T00:26:26;40.55;;;29.98;;
29688;SDS011;16600;47.444;8.334;2022-12-10T00:28:53;38.40;;;29.63;;
29688;SDS011;16600;47.444;8.334;2022-12-10T00:31:20;42.53;;;30.08;;
29688;SDS011;16600;47.444;8.334;2022-12-10T00:33:46;45.85;;;31.95;;
29688;SDS011;16600;47.444;8.334;2022-12-10T00:36:14;45.05;;;31.85;;
29688;SDS011;16600;47.444;8.334;2022-12-10T00:38:42;39.50;;;30.02;;
29688;SDS011;16600;47.444;8.334;2022-12-10T00:41:08;46.80;;;31.58;;
29688;SDS011;16600;47.444;8.334;2022-12-10T00:43:35;44.65;;;32.55;;
29688;SDS011;16600;47.444;8.334;2022-12-10T00:46:04;37.28;;;29.17;;
29688;SDS011;16600;47.444;8.334;2022-12-10T00:48:34;48.70;;;33.20;;
29688;SDS011;16600;47.444;8.334;2022-12-10T00:51:01;45.90;;;31.10;;
29688;SDS011;16600;47.444;8.334;2022-12-10T00:53:28;43.40;;;31.58;;
29688;SDS011;16600;47.444;8.334;2022-12-10T00:55:55;47.67;;;31.23;;
29688;SDS011;16600;47.444;8.334;2022-12-10T00:58:28;46.67;;;32.08;;
29688;SDS011;16600;47.444;8.334;2022-12-10T01:00:54;43.85;;;32.42;;
29688;SDS011;16600;47.444;8.334;2022-12-10T01:03:21;42.88;;;31.67;;
29688;SDS011;16600;47.444;8.334;2022-12-10T01:05:48;41.45;;;31.83;;
29688;SDS011;16600;47.444;8.334;2022-12-10T01:08:16;42.03;;;32.58;;
29688;SDS011;16600;47.444;8.334;2022-12-10T01:10:42;41.55;;;31.35;;
29688;SDS011;16600;47.444;8.334;2022-12-10T01:13:09;43.45;;;30.80;;
29688;SDS011;16600;47.444;8.334;2022-12-10T01:15:38;39.67;;;31.63;;
29688;SDS011;16600;47.444;8.334;2022-12-10T01:18:07;36.90;;;28.83;;
29688;SDS011;16600;47.444;8.334;2022-12-10T01:20:34;42.33;;;31.73;;
29688;SDS011;16600;47.444;8.334;2022-12-10T01:23:01;57.85;;;32.25;;
29688;SDS011;16600;47.444;8.334;2022-12-10T01:25:27;50.88;;;31.25;;
29688;SDS011;16600;47.444;8.334;2022-12-10T01:27:56;43.05;;;31.27;;
29688;SDS011;16600;47.444;8.334;2022-12-10T01:30:23;43.95;;;31.80;;
29688;SDS011;16600;47.444;8.334;2022-12-10T01:32:49;38.72;;;31.67;;
29688;SDS011;16600;47.444;8.334;2022-12-10T01:35:15;53.53;;;33.85;;
29688;SDS011;16600;47.444;8.334;2022-12-10T01:37:41;36.88;;;28.98;;
29688;SDS011;16600;47.444;8.334;2022-12-10T01:40:07;39.08;;;32.13;;
29688;SDS011;16600;47.444;8.334;2022-12-10T01:42:40;44.35;;;31.80;;
29688;SDS011;16600;47.444;8.334;2022-12-10T01:47:32;38.03;;;29.92;;
29688;SDS011;16600;47.444;8.334;2022-12-10T01:49:58;44.13;;;31.60;;
29688;SDS011;16600;47.444;8.334;2022-12-10T01:52:26;40.67;;;31.75;;
29688;SDS011;16600;47.444;8.334;2022-12-10T01:54:54;44.58;;;34.78;;
29688;SDS011;16600;47.444;8.334;2022-12-10T01:57:24;42.47;;;33.13;;
29688;SDS011;16600;47.444;8.334;2022-12-10T01:59:53;45.78;;;33.38;;
29688;SDS011;16600;47.444;8.334;2022-12-10T02:17:41;42.97;;;32.25;;
29688;SDS011;16600;47.444;8.334;2022-12-10T02:20:10;46.97;;;33.60;;
29688;SDS011;16600;47.444;8.334;2022-12-10T02:22:41;46.47;;;32.65;;
29688;SDS011;16600;47.444;8.334;2022-12-10T02:25:09;47.03;;;33.97;;
29688;SDS011;16600;47.444;8.334;2022-12-10T02:27:46;39.50;;;31.52;;
29688;SDS011;16600;47.444;8.334;2022-12-10T02:32:38;38.58;;;30.55;;
29688;SDS011;16600;47.444;8.334;2022-12-10T02:35:09;36.40;;;29.33;;
29688;SDS011;16600;47.444;8.334;2022-12-10T02:37:45;38.28;;;28.30;;
29688;SDS011;16600;47.444;8.334;2022-12-10T02:40:14;42.85;;;28.00;;
29688;SDS011;16600;47.444;8.334;2022-12-10T02:42:45;38.95;;;29.45;;
29688;SDS011;16600;47.444;8.334;2022-12-10T02:45:12;35.10;;;28.48;;
29688;SDS011;16600;47.444;8.334;2022-12-10T02:47:39;37.95;;;29.17;;
29688;SDS011;16600;47.444;8.334;2022-12-10T02:50:06;38.72;;;29.00;;
29688;SDS011;16600;47.444;8.334;2022-12-10T02:52:33;37.97;;;28.70;;
29688;SDS011;16600;47.444;8.334;2022-12-10T02:57:32;34.83;;;27.40;;
29688;SDS011;16600;47.444;8.334;2022-12-10T03:02:42;45.55;;;29.83;;
29688;SDS011;16600;47.444;8.334;2022-12-10T03:05:18;34.75;;;28.65;;
29688;SDS011;16600;47.444;8.334;2022-12-10T03:10:33;39.15;;;29.77;;
29688;SDS011;16600;47.444;8.334;2022-12-10T03:13:07;37.00;;;30.02;;
29688;SDS011;16600;47.444;8.334;2022-12-10T03:15:34;43.90;;;31.83;;
29688;SDS011;16600;47.444;8.334;2022-12-10T03:18:01;49.97;;;29.80;;
29688;SDS011;16600;47.444;8.334;2022-12-10T03:20:28;41.78;;;30.13;;
29688;SDS011;16600;47.444;8.334;2022-12-10T03:22:55;40.58;;;29.80;;
29688;SDS011;16600;47.444;8.334;2022-12-10T03:27:47;42.97;;;30.35;;
29688;SDS011;16600;47.444;8.334;2022-12-10T03:30:15;38.30;;;29.60;;
29688;SDS011;16600;47.444;8.334;2022-12-10T03:32:41;36.70;;;28.77;;
29688;SDS011;16600;47.444;8.334;2022-12-10T03:35:09;33.22;;;26.75;;
29688;SDS011;16600;47.444;8.334;2022-12-10T03:37:35;34.00;;;28.63;;
29688;SDS011;16600;47.444;8.334;2022-12-10T03:42:26;40.00;;;27.75;;
29688;SDS011;16600;47.444;8.334;2022-12-10T03:44:52;36.33;;;28.63;;
29688;SDS011;16600;47.444;8.334;2022-12-10T03:49:43;38.55;;;29.05;;
29688;SDS011;16600;47.444;8.334;2022-12-10T03:54:34;37.65;;;28.67;;
29688;SDS011;16600;47.444;8.334;2022-12-10T03:59:26;38.13;;;29.15;;
29688;SDS011;16600;47.444;8.334;2022-12-10T04:01:52;36.55;;;28.45;;
29688;SDS011;16600;47.444;8.334;2022-12-10T04:04:18;34.83;;;29.85;;
29688;SDS011;16600;47.444;8.334;2022-12-10T04:06:44;35.33;;;29.50;;
29688;SDS011;16600;47.444;8.334;2022-12-10T04:09:11;40.13;;;29.98;;
29688;SDS011;16600;47.444;8.334;2022-12-10T04:11:37;41.25;;;30.13;;
29688;SDS011;16600;47.444;8.334;2022-12-10T04:14:03;41.35;;;29.35;;
29688;SDS011;16600;47.444;8.334;2022-12-10T04:16:48;34.35;;;28.90;;
29688;SDS011;16600;47.444;8.334;2022-12-10T04:21:40;59.67;;;40.25;;
29688;SDS011;16600;47.444;8.334;2022-12-10T04:24:26;101.68;;;73.88;;
29688;SDS011;16600;47.444;8.334;2022-12-10T04:27:29;62.67;;;45.58;;
29688;SDS011;16600;47.444;8.334;2022-12-10T04:29:56;44.70;;;34.28;;
29688;SDS011;16600;47.444;8.334;2022-12-10T04:32:23;47.35;;;36.50;;
29688;SDS011;16600;47.444;8.334;2022-12-10T04:34:49;41.65;;;32.28;;
29688;SDS011;16600;47.444;8.334;2022-12-10T04:37:15;33.47;;;28.45;;
29688;SDS011;16600;47.444;8.334;2022-12-10T04:39:42;39.17;;;30.42;;
29688;SDS011;16600;47.444;8.334;2022-12-10T04:42:08;44.72;;;33.35;;
29688;SDS011;16600;47.444;8.334;2022-12-10T04:44:37;47.65;;;35.28;;
29688;SDS011;16600;47.444;8.334;2022-12-10T04:47:04;49.67;;;39.30;;
29688;SDS011;16600;47.444;8.334;2022-12-10T04:49:30;62.67;;;46.42;;
29688;SDS011;16600;47.444;8.334;2022-12-10T04:51:57;58.10;;;43.13;;
29688;SDS011;16600;47.444;8.334;2022-12-10T04:54:23;61.67;;;49.95;;
29688;SDS011;16600;47.444;8.334;2022-12-10T04:56:50;52.38;;;39.75;;
29688;SDS011;16600;47.444;8.334;2022-12-10T04:59:16;58.75;;;42.88;;
29688;SDS011;16600;47.444;8.334;2022-12-10T05:03:02;51.47;;;37.33;;
29688;SDS011;16600;47.444;8.334;2022-12-10T05:05:28;36.03;;;29.80;;
29688;SDS011;16600;47.444;8.334;2022-12-10T05:10:19;37.72;;;30.25;;
29688;SDS011;16600;47.444;8.334;2022-12-10T05:15:11;38.17;;;28.95;;
29688;SDS011;16600;47.444;8.334;2022-12-10T05:17:37;33.17;;;26.95;;
29688;SDS011;16600;47.444;8.334;2022-12-10T05:20:03;40.85;;;29.25;;
29688;SDS011;16600;47.444;8.334;2022-12-10T05:22:29;37.72;;;27.77;;
29688;SDS011;16600;47.444;8.334;2022-12-10T05:25:14;48.85;;;35.55;;
29688;SDS011;16600;47.444;8.334;2022-12-10T05:27:40;40.90;;;28.73;;
29688;SDS011;16600;47.444;8.334;2022-12-10T05:30:09;35.65;;;28.02;;
29688;SDS011;16600;47.444;8.334;2022-12-10T05:32:35;38.45;;;26.88;;
29688;SDS011;16600;47.444;8.334;2022-12-10T05:35:02;35.38;;;28.92;;
29688;SDS011;16600;47.444;8.334;2022-12-10T05:37:28;35.85;;;27.95;;
29688;SDS011;16600;47.444;8.334;2022-12-10T05:39:55;43.22;;;29.70;;
29688;SDS011;16600;47.444;8.334;2022-12-10T05:44:46;36.38;;;26.17;;
29688;SDS011;16600;47.444;8.334;2022-12-10T05:47:12;37.42;;;29.30;;
29688;SDS011;16600;47.444;8.334;2022-12-10T05:49:38;39.47;;;29.13;;
29688;SDS011;16600;47.444;8.334;2022-12-10T05:52:05;39.22;;;30.35;;
29688;SDS011;16600;47.444;8.334;2022-12-10T05:54:34;43.35;;;32.97;;
29688;SDS011;16600;47.444;8.334;2022-12-10T05:57:00;35.03;;;28.05;;
29688;SDS011;16600;47.444;8.334;2022-12-10T05:59:26;36.97;;;28.23;;
29688;SDS011;16600;47.444;8.334;2022-12-10T06:01:53;35.83;;;28.20;;
29688;SDS011;16600;47.444;8.334;2022-12-10T06:04:19;38.15;;;28.83;;
29688;SDS011;16600;47.444;8.334;2022-12-10T06:09:13;31.80;;;27.27;;
29688;SDS011;16600;47.444;8.334;2022-12-10T06:11:39;38.63;;;30.30;;
29688;SDS011;16600;47.444;8.334;2022-12-10T06:14:05;41.33;;;28.35;;
29688;SDS011;16600;47.444;8.334;2022-12-10T06:16:31;38.58;;;29.70;;
29688;SDS011;16600;47.444;8.334;2022-12-10T06:21:24;40.03;;;30.37;;
29688;SDS011;16600;47.444;8.334;2022-12-10T06:23:50;42.72;;;29.00;;
29688;SDS011;16600;47.444;8.334;2022-12-10T06:26:22;42.83;;;31.67;;
29688;SDS011;16600;47.444;8.334;2022-12-10T06:28:48;40.30;;;30.17;;
29688;SDS011;16600;47.444;8.334;2022-12-10T06:31:15;40.60;;;30.25;;
29688;SDS011;16600;47.444;8.334;2022-12-10T06:33:41;41.60;;;31.52;;
29688;SDS011;16600;47.444;8.334;2022-12-10T06:36:08;40.78;;;30.02;;
29688;SDS011;16600;47.444;8.334;2022-12-10T06:38:35;36.40;;;29.58;;
29688;SDS011;16600;47.444;8.334;2022-12-10T06:41:06;53.35;;;31.60;;
29688;SDS011;16600;47.444;8.334;2022-12-10T06:43:32;42.15;;;32.95;;
29688;SDS011;16600;47.444;8.334;2022-12-10T06:45:58;41.85;;;30.50;;
29688;SDS011;16600;47.444;8.334;2022-12-10T06:48:25;42.85;;;31.00;;
29688;SDS011;16600;47.444;8.334;2022-12-10T06:53:16;34.05;;;27.90;;
29688;SDS011;16600;47.444;8.334;2022-12-10T06:55:42;36.50;;;27.98;;
29688;SDS011;16600;47.444;8.334;2022-12-10T06:58:09;44.63;;;27.92;;
29688;SDS011;16600;47.444;8.334;2022-12-10T07:00:35;40.83;;;29.80;;
29688;SDS011;16600;47.444;8.334;2022-12-10T07:05:26;38.10;;;27.77;;
29688;SDS011;16600;47.444;8.334;2022-12-10T07:07:52;33.53;;;27.52;;
29688;SDS011;16600;47.444;8.334;2022-12-10T07:10:21;36.55;;;28.30;;
29688;SDS011;16600;47.444;8.334;2022-12-10T07:12:47;37.45;;;25.80;;
29688;SDS011;16600;47.444;8.334;2022-12-10T07:15:13;38.55;;;28.50;;
29688;SDS011;16600;47.444;8.334;2022-12-10T07:17:40;34.92;;;26.88;;
29688;SDS011;16600;47.444;8.334;2022-12-10T07:20:06;37.42;;;29.25;;
29688;SDS011;16600;47.444;8.334;2022-12-10T07:22:32;40.47;;;28.02;;
29688;SDS011;16600;47.444;8.334;2022-12-10T07:24:58;36.92;;;29.35;;
29688;SDS011;16600;47.444;8.334;2022-12-10T07:27:25;37.38;;;27.80;;
29688;SDS011;16600;47.444;8.334;2022-12-10T07:32:17;39.77;;;30.10;;
29688;SDS011;16600;47.444;8.334;2022-12-10T07:37:08;35.17;;;27.98;;
29688;SDS011;16600;47.444;8.334;2022-12-10T07:39:34;35.85;;;27.90;;
29688;SDS011;16600;47.444;8.334;2022-12-10T07:42:03;34.13;;;28.83;;
29688;SDS011;16600;47.444;8.334;2022-12-10T07:44:30;32.40;;;25.75;;
29688;SDS011;16600;47.444;8.334;2022-12-10T07:49:21;37.58;;;26.15;;
29688;SDS011;16600;47.444;8.334;2022-12-10T07:54:13;30.40;;;25.65;;
29688;SDS011;16600;47.444;8.334;2022-12-10T07:56:39;35.78;;;26.02;;
29688;SDS011;16600;47.444;8.334;2022-12-10T08:01:31;33.13;;;26.75;;
29688;SDS011;16600;47.444;8.334;2022-12-10T08:03:57;30.73;;;25.42;;
29688;SDS011;16600;47.444;8.334;2022-12-10T08:06:23;32.58;;;27.58;;
29688;SDS011;16600;47.444;8.334;2022-12-10T08:08:50;38.35;;;30.25;;
29688;SDS011;16600;47.444;8.334;2022-12-10T08:11:17;31.25;;;25.08;;
29688;SDS011;16600;47.444;8.334;2022-12-10T08:13:43;37.35;;;26.40;;
29688;SDS011;16600;47.444;8.334;2022-12-10T08:16:11;29.80;;;24.45;;
29688;SDS011;16600;47.444;8.334;2022-12-10T08:18:38;27.38;;;24.40;;
29688;SDS011;16600;47.444;8.334;2022-12-10T08:21:05;31.98;;;23.85;;
29688;SDS011;16600;47.444;8.334;2022-12-10T08:23:31;31.35;;;26.38;;
29688;SDS011;16600;47.444;8.334;2022-12-10T08:28:23;26.02;;;22.20;;
29688;SDS011;16600;47.444;8.334;2022-12-10T08:30:49;26.55;;;22.65;;
29688;SDS011;16600;47.444;8.334;2022-12-10T08:33:15;28.65;;;22.92;;
29688;SDS011;16600;47.444;8.334;2022-12-10T08:35:41;28.83;;;22.20;;
29688;SDS011;16600;47.444;8.334;2022-12-10T08:40:33;26.05;;;20.70;;
29688;SDS011;16600;47.444;8.334;2022-12-10T08:42:59;29.52;;;23.30;;
29688;SDS011;16600;47.444;8.334;2022-12-10T08:45:26;26.42;;;23.27;;
29688;SDS011;16600;47.444;8.334;2022-12-10T08:47:52;31.90;;;25.27;;
29688;SDS011;16600;47.444;8.334;2022-12-10T08:50:18;28.83;;;25.70;;
29688;SDS011;16600;47.444;8.334;2022-12-10T08:52:44;25.48;;;21.52;;
29688;SDS011;16600;47.444;8.334;2022-12-10T08:57:35;28.15;;;22.10;;
29688;SDS011;16600;47.444;8.334;2022-12-10T09:00:03;29.05;;;21.85;;
29688;SDS011;16600;47.444;8.334;2022-12-10T09:02:29;24.83;;;21.98;;
29688;SDS011;16600;47.444;8.334;2022-12-10T09:04:55;30.48;;;23.40;;
29688;SDS011;16600;47.444;8.334;2022-12-10T09:07:21;27.33;;;23.73;;
29688;SDS011;16600;47.444;8.334;2022-12-10T09:12:13;21.83;;;19.45;;
29688;SDS011;16600;47.444;8.334;2022-12-10T09:14:39;28.92;;;21.20;;
29688;SDS011;16600;47.444;8.334;2022-12-10T09:17:07;24.27;;;21.33;;
29688;SDS011;16600;47.444;8.334;2022-12-10T09:19:34;30.02;;;19.98;;
29688;SDS011;16600;47.444;8.334;2022-12-10T09:22:00;23.60;;;20.92;;
29688;SDS011;16600;47.444;8.334;2022-12-10T09:24:26;22.98;;;20.17;;
29688;SDS011;16600;47.444;8.334;2022-12-10T09:26:53;24.00;;;20.48;;
29688;SDS011;16600;47.444;8.334;2022-12-10T09:29:19;25.85;;;21.35;;
29688;SDS011;16600;47.444;8.334;2022-12-10T09:31:51;23.75;;;21.23;;
29688;SDS011;16600;47.444;8.334;2022-12-10T09:34:17;24.65;;;21.85;;
29688;SDS011;16600;47.444;8.334;2022-12-10T09:36:44;25.95;;;21.20;;
29688;SDS011;16600;47.444;8.334;2022-12-10T09:39:13;27.48;;;21.90;;
29688;SDS011;16600;47.444;8.334;2022-12-10T09:44:28;36.17;;;21.95;;
29688;SDS011;16600;47.444;8.334;2022-12-10T09:47:00;22.60;;;20.20;;
29688;SDS011;16600;47.444;8.334;2022-12-10T09:52:12;23.27;;;19.85;;
29688;SDS011;16600;47.444;8.334;2022-12-10T09:54:43;21.63;;;19.05;;
29688;SDS011;16600;47.444;8.334;2022-12-10T09:57:11;26.30;;;18.98;;
29688;SDS011;16600;47.444;8.334;2022-12-10T09:59:42;19.75;;;17.65;;
29688;SDS011;16600;47.444;8.334;2022-12-10T10:04:44;21.20;;;18.38;;
29688;SDS011;16600;47.444;8.334;2022-12-10T10:07:14;21.63;;;17.58;;
29688;SDS011;16600;47.444;8.334;2022-12-10T10:09:42;17.58;;;15.73;;
29688;SDS011;16600;47.444;8.334;2022-12-10T10:12:12;23.40;;;16.60;;
29688;SDS011;16600;47.444;8.334;2022-12-10T10:14:40;16.67;;;14.98;;
29688;SDS011;16600;47.444;8.334;2022-12-10T10:17:11;16.88;;;14.95;;
29688;SDS011;16600;47.444;8.334;2022-12-10T10:19:39;16.33;;;14.63;;
29688;SDS011;16600;47.444;8.334;2022-12-10T10:22:08;16.77;;;15.02;;
29688;SDS011;16600;47.444;8.334;2022-12-10T10:24:35;16.98;;;15.25;;
29688;SDS011;16600;47.444;8.334;2022-12-10T10:27:10;24.52;;;18.52;;
29688;SDS011;16600;47.444;8.334;2022-12-10T10:29:37;17.13;;;15.32;;
29688;SDS011;16600;47.444;8.334;2022-12-10T10:32:11;17.35;;;15.25;;
29688;SDS011;16600;47.444;8.334;2022-12-10T10:34:40;16.38;;;14.68;;
29688;SDS011;16600;47.444;8.334;2022-12-10T10:37:18;18.17;;;13.68;;
29688;SDS011;16600;47.444;8.334;2022-12-10T10:39:48;16.45;;;14.70;;
29688;SDS011;16600;47.444;8.334;2022-12-10T10:42:20;24.67;;;17.10;;
29688;SDS011;16600;47.444;8.334;2022-12-10T10:44:47;20.92;;;16.08;;
29688;SDS011;16600;47.444;8.334;2022-12-10T10:49:39;21.13;;;18.25;;
29688;SDS011;16600;47.444;8.334;2022-12-10T10:52:13;18.30;;;15.02;;
29688;SDS011;16600;47.444;8.334;2022-12-10T10:54:40;19.23;;;15.38;;
29688;SDS011;16600;47.444;8.334;2022-12-10T10:59:44;18.17;;;15.23;;
29688;SDS011;16600;47.444;8.334;2022-12-10T11:03:02;15.43;;;13.57;;
29688;SDS011;16600;47.444;8.334;2022-12-10T11:05:31;18.58;;;13.50;;
29688;SDS011;16600;47.444;8.334;2022-12-10T11:08:03;15.55;;;13.30;;
29688;SDS011;16600;47.444;8.334;2022-12-10T11:10:29;15.82;;;12.73;;
29688;SDS011;16600;47.444;8.334;2022-12-10T11:15:32;15.30;;;13.80;;
29688;SDS011;16600;47.444;8.334;2022-12-10T11:18:27;17.50;;;15.38;;
29688;SDS011;16600;47.444;8.334;2022-12-10T11:20:59;28.15;;;14.73;;
29688;SDS011;16600;47.444;8.334;2022-12-10T11:23:30;15.55;;;13.25;;
29688;SDS011;16600;47.444;8.334;2022-12-10T11:31:01;16.90;;;14.70;;
29688;SDS011;16600;47.444;8.334;2022-12-10T11:33:43;18.52;;;15.02;;
29688;SDS011;16600;47.444;8.334;2022-12-10T11:36:25;16.60;;;14.25;;
29688;SDS011;16600;47.444;8.334;2022-12-10T11:41:46;16.52;;;14.65;;
29688;SDS011;16600;47.444;8.334;2022-12-10T11:47:02;16.58;;;14.63;;
29688;SDS011;16600;47.444;8.334;2022-12-10T11:49:42;24.38;;;15.45;;
29688;SDS011;16600;47.444;8.334;2022-12-10T11:52:20;18.88;;;15.93;;
29688;SDS011;16600;47.444;8.334;2022-12-10T11:55:02;23.63;;;15.60;;
29688;SDS011;16600;47.444;8.334;2022-12-10T11:57:43;16.88;;;14.35;;
29688;SDS011;16600;47.444;8.334;2022-12-10T12:05:07;16.30;;;14.60;;
29688;SDS011;16600;47.444;8.334;2022-12-10T12:07:39;21.48;;;17.27;;
29688;SDS011;16600;47.444;8.334;2022-12-10T12:15:33;25.77;;;17.70;;
29688;SDS011;16600;47.444;8.334;2022-12-10T12:18:02;21.02;;;17.75;;
29688;SDS011;16600;47.444;8.334;2022-12-10T12:20:49;27.10;;;18.58;;
29688;SDS011;16600;47.444;8.334;2022-12-10T12:23:19;24.98;;;20.48;;
29688;SDS011;16600;47.444;8.334;2022-12-10T12:25:48;25.67;;;18.50;;
29688;SDS011;16600;47.444;8.334;2022-12-10T12:29:04;21.88;;;18.60;;
29688;SDS011;16600;47.444;8.334;2022-12-10T12:31:06;20.92;;;18.25;;
29688;SDS011;16600;47.444;8.334;2022-12-10T12:36:22;26.33;;;20.73;;
29688;SDS011;16600;47.444;8.334;2022-12-10T12:43:51;29.95;;;19.48;;
29688;SDS011;16600;47.444;8.334;2022-12-10T12:46:32;32.47;;;19.73;;
29688;SDS011;16600;47.444;8.334;2022-12-10T12:49:10;26.02;;;20.73;;
29688;SDS011;16600;47.444;8.334;2022-12-10T12:54:29;26.52;;;21.52;;
29688;SDS011;16600;47.444;8.334;2022-12-10T12:57:01;27.45;;;22.00;;
29688;SDS011;16600;47.444;8.334;2022-12-10T12:59:34;27.10;;;21.25;;
29688;SDS011;16600;47.444;8.334;2022-12-10T13:02:08;29.25;;;22.17;;
29688;SDS011;16600;47.444;8.334;2022-12-10T13:04:40;25.20;;;20.38;;
29688;SDS011;16600;47.444;8.334;2022-12-10T13:09:43;28.23;;;23.35;;
29688;SDS011;16600;47.444;8.334;2022-12-10T13:12:17;32.33;;;24.42;;
29688;SDS011;16600;47.444;8.334;2022-12-10T13:17:33;31.77;;;21.87;;
29688;SDS011;16600;47.444;8.334;2022-12-10T13:20:45;29.50;;;21.85;;
29688;SDS011;16600;47.444;8.334;2022-12-10T13:22:54;26.30;;;21.47;;
29688;SDS011;16600;47.444;8.334;2022-12-10T13:25:36;27.50;;;20.90;;
29688;SDS011;16600;47.444;8.334;2022-12-10T13:28:16;28.33;;;19.85;;
29688;SDS011;16600;47.444;8.334;2022-12-10T13:30:42;23.13;;;19.75;;
29688;SDS011;16600;47.444;8.334;2022-12-10T13:33:15;25.90;;;19.90;;
29688;SDS011;16600;47.444;8.334;2022-12-10T13:35:43;27.10;;;20.90;;
29688;SDS011;16600;47.444;8.334;2022-12-10T13:38:18;23.63;;;19.30;;
29688;SDS011;16600;47.444;8.334;2022-12-10T13:40:50;23.50;;;20.08;;
29688;SDS011;16600;47.444;8.334;2022-12-10T13:43:39;34.05;;;24.10;;
29688;SDS011;16600;47.444;8.334;2022-12-10T13:46:26;22.88;;;18.88;;
29688;SDS011;16600;47.444;8.334;2022-12-10T13:48:56;23.83;;;20.60;;
29688;SDS011;16600;47.444;8.334;2022-12-10T13:51:36;27.88;;;22.13;;
29688;SDS011;16600;47.444;8.334;2022-12-10T13:54:12;25.42;;;21.70;;
29688;SDS011;16600;47.444;8.334;2022-12-10T14:06:50;30.45;;;21.67;;
29688;SDS011;16600;47.444;8.334;2022-12-10T14:09:18;24.77;;;20.83;;
29688;SDS011;16600;47.444;8.334;2022-12-10T14:11:47;26.48;;;20.42;;
29688;SDS011;16600;47.444;8.334;2022-12-10T14:14:17;27.13;;;22.02;;
29688;SDS011;16600;47.444;8.334;2022-12-10T14:16:47;30.02;;;23.58;;
29688;SDS011;16600;47.444;8.334;2022-12-10T14:19:14;31.42;;;23.30;;
29688;SDS011;16600;47.444;8.334;2022-12-10T14:21:41;25.48;;;20.63;;
29688;SDS011;16600;47.444;8.334;2022-12-10T14:26:57;25.45;;;20.95;;
29688;SDS011;16600;47.444;8.334;2022-12-10T14:29:23;23.60;;;19.48;;
29688;SDS011;16600;47.444;8.334;2022-12-10T14:31:49;27.65;;;19.75;;
29688;SDS011;16600;47.444;8.334;2022-12-10T14:34:17;22.95;;;19.40;;
29688;SDS011;16600;47.444;8.334;2022-12-10T14:36:48;24.98;;;21.13;;
29688;SDS011;16600;47.444;8.334;2022-12-10T14:39:21;23.90;;;18.77;;
29688;SDS011;16600;47.444;8.334;2022-12-10T14:41:55;21.00;;;18.70;;
29688;SDS011;16600;47.444;8.334;2022-12-10T14:44:21;21.98;;;18.88;;
29688;SDS011;16600;47.444;8.334;2022-12-10T14:46:48;23.17;;;19.00;;
29688;SDS011;16600;47.444;8.334;2022-12-10T14:49:15;21.80;;;18.05;;
29688;SDS011;16600;47.444;8.334;2022-12-10T14:51:42;22.98;;;18.75;;
29688;SDS011;16600;47.444;8.334;2022-12-10T14:56:54;24.77;;;20.08;;
29688;SDS011;16600;47.444;8.334;2022-12-10T14:59:23;27.25;;;19.70;;
29688;SDS011;16600;47.444;8.334;2022-12-10T15:01:52;30.73;;;20.33;;
29688;SDS011;16600;47.444;8.334;2022-12-10T15:04:19;29.55;;;22.20;;
29688;SDS011;16600;47.444;8.334;2022-12-10T15:06:46;30.27;;;21.73;;
29688;SDS011;16600;47.444;8.334;2022-12-10T15:09:15;25.23;;;21.80;;
29688;SDS011;16600;47.444;8.334;2022-12-10T15:11:42;26.80;;;22.65;;
29688;SDS011;16600;47.444;8.334;2022-12-10T15:14:10;23.75;;;21.23;;
29688;SDS011;16600;47.444;8.334;2022-12-10T15:16:42;25.42;;;21.85;;
29688;SDS011;16600;47.444;8.334;2022-12-10T15:19:21;32.03;;;21.02;;
29688;SDS011;16600;47.444;8.334;2022-12-10T15:21:48;31.50;;;22.95;;
29688;SDS011;16600;47.444;8.334;2022-12-10T15:24:21;26.77;;;23.27;;
29688;SDS011;16600;47.444;8.334;2022-12-10T15:26:48;32.88;;;24.50;;
29688;SDS011;16600;47.444;8.334;2022-12-10T15:31:48;32.50;;;23.92;;
29688;SDS011;16600;47.444;8.334;2022-12-10T15:34:17;36.63;;;24.13;;
29688;SDS011;16600;47.444;8.334;2022-12-10T15:36:49;31.40;;;24.77;;
29688;SDS011;16600;47.444;8.334;2022-12-10T15:39:17;28.67;;;22.88;;
29688;SDS011;16600;47.444;8.334;2022-12-10T15:41:53;28.33;;;23.63;;
29688;SDS011;16600;47.444;8.334;2022-12-10T15:46:49;26.95;;;22.55;;
29688;SDS011;16600;47.444;8.334;2022-12-10T15:49:18;28.83;;;23.13;;
29688;SDS011;16600;47.444;8.334;2022-12-10T15:51:44;30.23;;;22.70;;
29688;SDS011;16600;47.444;8.334;2022-12-10T15:54:32;26.48;;;22.42;;
29688;SDS011;16600;47.444;8.334;2022-12-10T15:56:58;35.80;;;23.88;;
29688;SDS011;16600;47.444;8.334;2022-12-10T15:59:27;28.63;;;22.77;;
29688;SDS011;16600;47.444;8.334;2022-12-10T16:01:53;29.38;;;22.45;;
29688;SDS011;16600;47.444;8.334;2022-12-10T16:04:20;33.10;;;22.35;;
29688;SDS011;16600;47.444;8.334;2022-12-10T16:06:46;30.90;;;23.63;;
29688;SDS011;16600;47.444;8.334;2022-12-10T16:09:12;27.58;;;22.30;;
29688;SDS011;16600;47.444;8.334;2022-12-10T16:11:38;28.63;;;22.10;;
29688;SDS011;16600;47.444;8.334;2022-12-10T16:14:05;27.65;;;22.75;;
29688;SDS011;16600;47.444;8.334;2022-12-10T16:16:32;28.90;;;23.83;;
29688;SDS011;16600;47.444;8.334;2022-12-10T16:21:23;32.28;;;24.00;;
29688;SDS011;16600;47.444;8.334;2022-12-10T16:23:50;34.47;;;23.92;;
29688;SDS011;16600;47.444;8.334;2022-12-10T16:28:42;31.83;;;23.20;;
29688;SDS011;16600;47.444;8.334;2022-12-10T16:31:09;30.75;;;24.13;;
29688;SDS011;16600;47.444;8.334;2022-12-10T16:33:39;37.90;;;27.77;;
29688;SDS011;16600;47.444;8.334;2022-12-10T16:36:09;36.72;;;26.00;;
29688;SDS011;16600;47.444;8.334;2022-12-10T16:38:35;49.35;;;29.50;;
29688;SDS011;16600;47.444;8.334;2022-12-10T16:43:28;43.13;;;28.10;;
29688;SDS011;16600;47.444;8.334;2022-12-10T16:45:54;32.40;;;24.92;;
29688;SDS011;16600;47.444;8.334;2022-12-10T16:48:20;36.08;;;27.83;;
29688;SDS011;16600;47.444;8.334;2022-12-10T16:50:47;35.85;;;28.63;;
29688;SDS011;16600;47.444;8.334;2022-12-10T16:53:21;36.58;;;27.95;;
29688;SDS011;16600;47.444;8.334;2022-12-10T16:58:17;35.92;;;28.20;;
29688;SDS011;16600;47.444;8.334;2022-12-10T17:03:03;46.63;;;33.50;;
29688;SDS011;16600;47.444;8.334;2022-12-10T17:05:41;45.90;;;34.10;;
29688;SDS011;16600;47.444;8.334;2022-12-10T17:08:08;50.97;;;35.58;;
29688;SDS011;16600;47.444;8.334;2022-12-10T17:10:34;50.58;;;35.33;;
29688;SDS011;16600;47.444;8.334;2022-12-10T17:13:19;43.10;;;33.15;;
29688;SDS011;16600;47.444;8.334;2022-12-10T17:15:46;46.63;;;32.50;;
29688;SDS011;16600;47.444;8.334;2022-12-10T17:18:15;45.15;;;34.72;;
29688;SDS011;16600;47.444;8.334;2022-12-10T17:20:43;46.42;;;34.20;;